Time;durP1;ratioP1;P1;durP2;ratioP2;P2;SDS_P1;SDS_P2;PMS_P1;PMS_P2;Temp;Humidity;BMP_temperature;BMP_pressure;BME280_temperature;BME280_humidity;BME280_pressure;Samples;Min_cycle;Max_cycle;Signal;HPM_P1;HPM_P2
2022/11/02 00:01:48;;;;;;;12.27;2.17;;;;;;;;;;6183744;23;20016;-72
2022/11/02 00:04:14;;;;;;;12.10;2.15;;;;;;;;;;6183701;23;20095;-72
2022/11/02 00:06:40;;;;;;;8.57;2.10;;;;;;;;;;6183975;23;20013;-72
2022/11/02 00:09:07;;;;;;;10.30;2.17;;;;;;;;;;6182533;23;20383;-72
2022/11/02 00:11:33;;;;;;;12.80;2.90;;;;;;;;;;6158953;23;20021;-72
2022/11/02 00:13:59;;;;;;;11.88;2.20;;;;;;;;;;6183552;23;20017;-72
2022/11/02 00:16:25;;;;;;;10.23;2.10;;;;;;;;;;6183798;23;20062;-72
2022/11/02 00:18:54;;;;;;;13.30;2.20;;;;;;;;;;6183629;23;20032;-71
2022/11/02 00:21:21;;;;;;;10.77;2.42;;;;;;;;;;6184228;23;20092;-71
2022/11/02 00:23:47;;;;;;;10.43;2.20;;;;;;;;;;6183641;23;20028;-72
2022/11/02 00:26:14;;;;;;;14.70;1.85;;;;;;;;;;6159154;23;20017;-72
2022/11/02 00:28:40;;;;;;;10.73;2.30;;;;;;;;;;6158974;23;20017;-72
2022/11/02 00:31:06;;;;;;;11.50;2.22;;;;;;;;;;6183527;23;20051;-72
2022/11/02 00:33:32;;;;;;;5.78;1.90;;;;;;;;;;6159229;23;20376;-72
2022/11/02 00:35:58;;;;;;;7.30;2.55;;;;;;;;;;6183466;23;20340;-72
2022/11/02 00:38:25;;;;;;;10.13;1.98;;;;;;;;;;6183451;23;20017;-72
2022/11/02 00:40:51;;;;;;;8.73;2.65;;;;;;;;;;6183530;23;20445;-71
2022/11/02 00:43:17;;;;;;;11.60;2.30;;;;;;;;;;6185603;23;20009;-71
2022/11/02 00:45:43;;;;;;;7.97;2.53;;;;;;;;;;6187054;23;20013;-71
2022/11/02 00:48:09;;;;;;;7.72;1.95;;;;;;;;;;6186800;23;20083;-72
2022/11/02 00:50:35;;;;;;;7.38;2.10;;;;;;;;;;6186883;23;20030;-72
2022/11/02 00:53:01;;;;;;;8.05;2.53;;;;;;;;;;6186736;23;20043;-72
2022/11/02 00:55:27;;;;;;;12.05;2.03;;;;;;;;;;6193012;23;20447;-72
2022/11/02 00:57:53;;;;;;;9.55;1.90;;;;;;;;;;6222114;23;20016;-72
2022/11/02 01:00:19;;;;;;;9.05;2.40;;;;;;;;;;6222085;23;20012;-72
2022/11/02 01:02:45;;;;;;;8.48;1.80;;;;;;;;;;6221940;23;20062;-72
2022/11/02 01:05:12;;;;;;;5.93;1.90;;;;;;;;;;6222116;23;20020;-71
2022/11/02 01:07:38;;;;;;;11.40;1.92;;;;;;;;;;6221879;22;20020;-72
2022/11/02 01:10:05;;;;;;;7.00;1.90;;;;;;;;;;6222084;23;20020;-72
2022/11/02 01:12:31;;;;;;;9.07;2.17;;;;;;;;;;6222228;23;20018;-72
2022/11/02 01:14:58;;;;;;;7.00;1.60;;;;;;;;;;6222565;23;20015;-71
2022/11/02 01:17:24;;;;;;;11.18;3.60;;;;;;;;;;6222587;23;20091;-71
2022/11/02 01:19:51;;;;;;;7.63;2.33;;;;;;;;;;6222877;23;20392;-72
2022/11/02 01:22:17;;;;;;;7.20;1.77;;;;;;;;;;6222251;23;20016;-72
2022/11/02 01:24:43;;;;;;;6.40;1.90;;;;;;;;;;6222004;23;20019;-72
2022/11/02 01:27:09;;;;;;;8.40;1.52;;;;;;;;;;6222640;23;20025;-71
2022/11/02 01:29:35;;;;;;;10.00;1.73;;;;;;;;;;6222074;23;20027;-71
2022/11/02 01:32:01;;;;;;;12.32;3.03;;;;;;;;;;6222306;23;20405;-72
2022/11/02 01:34:27;;;;;;;6.90;1.90;;;;;;;;;;6222380;23;20073;-72
2022/11/02 01:36:54;;;;;;;8.13;1.77;;;;;;;;;;6222703;23;20099;-72
2022/11/02 01:39:20;;;;;;;11.30;1.70;;;;;;;;;;6222486;23;20547;-71
2022/11/02 01:41:50;;;;;;;4.82;1.38;;;;;;;;;;6222327;23;20038;-72
2022/11/02 01:44:32;;;;;;;15.70;1.88;;;;;;;;;;6222264;23;20453;-71
2022/11/02 01:47:12;;;;;;;;;;;12.10;99.90;;;;;;6222601;23;20019;-71
2022/11/02 01:49:40;;;;;;;9.30;2.38;;;;;;;;;;6222171;23;19911;-72
2022/11/02 01:52:27;;;;;;;7.35;1.38;;;;;;;;;;6222088;23;20095;-72
2022/11/02 01:55:02;;;;;;;9.98;1.73;;;;;;;;;;6220124;23;20095;-72
2022/11/02 01:57:28;;;;;;;12.70;2.53;;;;;;;;;;6246663;23;20021;-72
2022/11/02 01:59:59;;;;;;;10.43;1.88;;;;;;;;;;6220260;23;20346;-71
2022/11/02 02:02:26;;;;;;;8.35;2.42;;;;;;;;;;6220152;23;20097;-71
2022/11/02 02:04:55;;;;;;;7.07;1.67;;;;;;;;;;6220158;23;20097;-71
2022/11/02 02:07:23;;;;;;;6.28;1.27;;;;;;;;;;6220137;23;20446;-71
2022/11/02 02:09:49;;;;;;;7.57;1.50;;;;;;;;;;6220079;23;20446;-71
2022/11/02 02:12:15;;;;;;;9.13;1.52;;;;;;;;;;6219858;23;20023;-71
2022/11/02 02:14:42;;;;;;;8.05;1.50;;;;;;;;;;6220059;23;20342;-72
2022/11/02 02:17:32;;;;;;;6.07;1.58;;;;;;;;;;6219922;23;20016;-72
2022/11/02 02:20:02;;;;;;;8.48;1.27;;;;;;;;;;6220106;23;20044;-72
2022/11/02 02:23:00;;;;;;;9.05;1.40;;;;;;;;;;6220092;23;20023;-72
2022/11/02 02:25:26;;;;;;;10.80;1.83;;;;;;;;;;6220018;23;20012;-71
2022/11/02 02:28:04;;;;;;;7.70;1.52;;;;;;;;;;6220101;23;20062;-71
2022/11/02 02:30:33;;;;;;;7.55;1.40;;;;;;;;;;6219867;23;20012;-71
2022/11/02 02:33:09;;;;;;;6.05;1.50;;;;;;;;;;6219904;23;20023;-72
2022/11/02 02:35:44;;;;;;;5.68;1.60;;;;;;;;;;6219823;23;20027;-72
2022/11/02 02:38:36;;;;;;;5.15;1.80;;;;;;;;;;6219850;23;20020;-72
2022/11/02 02:41:26;;;;;;;2.00;1.40;;;;;;;;;;6214441;23;20366;-72
2022/11/02 02:43:54;;;;;;;5.68;1.55;;;;;;;;;;6165198;23;20123;-72
2022/11/02 02:46:27;;;;;;;7.00;1.80;;;;;;;;;;6219802;23;20014;-72
2022/11/02 02:48:55;;;;;;;8.65;1.60;;;;;;;;;;6219813;23;20035;-72
2022/11/02 02:51:25;;;;;;;5.38;1.75;;;;;;;;;;6219681;23;20016;-72
2022/11/02 02:53:57;;;;;;;8.77;1.40;;;;;;;;;;6219629;23;20019;-72
2022/11/02 02:56:24;;;;;;;10.43;1.60;;;;;;;;;;6219511;23;20020;-72
2022/11/02 02:58:59;;;;;;;6.22;1.40;;;;;;;;;;6219295;23;20470;-72
2022/11/02 03:01:26;;;;;;;5.88;1.10;;;;;;;;;;6219629;23;20023;-72
2022/11/02 03:03:52;;;;;;;10.05;2.10;;;;;;;;;;6219974;23;20378;-72
2022/11/02 03:06:26;;;;;;;5.15;1.35;;;;;;;;;;6219874;23;20502;-72
2022/11/02 03:08:57;;;;;;;9.93;1.58;;;;;;;;;;6219391;23;20094;-72
2022/11/02 03:11:23;;;;;;;3.97;1.17;;;;;;;;;;6219671;23;20327;-72
2022/11/02 03:14:11;;;;;;;4.65;1.27;;;11.50;99.90;;;;;;6219453;23;20016;-72
2022/11/02 03:16:37;;;;;;;9.70;1.75;;;;;;;;;;6219237;23;20020;-71
2022/11/02 03:19:18;;;;;;;7.22;1.55;;;;;;;;;;6219486;23;20012;-71
2022/11/02 03:21:45;;;;;;;7.35;1.30;;;;;;;;;;6219845;23;20039;-72
2022/11/02 03:24:35;;;;;;;3.28;1.08;;;;;;;;;;6219411;23;20316;-72
2022/11/02 03:27:21;;;;;;;10.32;1.45;;;;;;;;;;6219393;23;20016;-72
2022/11/02 03:29:50;;;;;;;9.07;2.13;;;;;;;;;;6194264;23;20088;-72
2022/11/02 03:32:43;;;;;;;5.22;1.83;;;;;;;;;;6219484;23;20023;-72
2022/11/02 03:35:35;;;;;;;7.75;1.40;;;;;;;;;;6214004;23;20020;-72
2022/11/02 03:38:11;;;;;;;11.55;1.48;;;;;;;;;;6214188;23;20028;-72
2022/11/02 03:40:43;;;;;;;13.48;2.88;;;;;;;;;;6219168;23;20017;-72
2022/11/02 03:43:10;;;;;;;14.23;1.63;;;;;;;;;;6219368;23;20015;-72
2022/11/02 03:45:41;;;;;;;12.07;1.60;;;;;;;;;;6245948;23;20023;-72
2022/11/02 03:48:08;;;;;;;11.85;2.45;;;;;;;;;;6219186;23;20027;-72
2022/11/02 03:50:36;;;;;;;9.90;2.08;;;;;;;;;;6219074;23;20020;-72
2022/11/02 03:53:22;;;;;;;11.55;2.55;;;;;;;;;;6219056;23;20026;-71
2022/11/02 03:55:53;;;;;;;11.98;3.15;;;;;;;;;;6198340;23;20012;-72
2022/11/02 03:58:20;;;;;;;13.32;3.58;;;;;;;;;;6218844;23;20385;-71
2022/11/02 04:00:54;;;;;;;9.48;1.92;;;;;;;;;;6218902;23;20018;-72
2022/11/02 04:03:21;;;;;;;6.88;1.85;;;;;;;;;;6219011;23;20023;-72
2022/11/02 04:05:47;;;;;;;8.95;1.90;;;;;;;;;;6219362;23;20013;-72
2022/11/02 04:08:20;;;;;;;8.13;1.60;;;;;;;;;;6219066;23;20027;-72
2022/11/02 04:16:16;;;;;;;24.92;4.18;;;;;;;;;;6219015;23;20047;-71
2022/11/02 04:21:28;;;;;;;10.00;2.88;;;;;;;;;;6218824;23;20090;-71
2022/11/02 04:26:39;;;;;;;7.68;1.42;;;;;;;;;;6218853;23;20446;-71
2022/11/02 04:29:05;;;;;;;9.82;1.80;;;;;;;;;;6219113;23;20012;-71
2022/11/02 04:31:31;;;;;;;11.60;1.70;;;;;;;;;;6218861;23;20087;-72
2022/11/02 04:33:58;;;;;;;12.85;2.47;;;;;;;;;;6218774;23;20016;-71
2022/11/02 04:36:25;;;;;;;15.30;1.75;;;;;;;;;;6219009;23;20142;-70
2022/11/02 04:38:51;;;;;;;8.70;1.55;;;;;;;;;;6218760;23;20023;-71
2022/11/02 04:44:03;;;;;;;15.40;1.98;;;;;;;;;;6245504;23;20027;-70
2022/11/02 04:46:30;;;;;;;10.68;1.60;;;;;;;;;;6218845;23;20070;-70
2022/11/02 04:48:56;;;;;;;10.65;2.28;;;;;;;;;;6218778;23;20446;-71
2022/11/02 04:51:24;;;;;;;8.88;1.60;;;;;;;;;;6218807;23;20016;-70
2022/11/02 04:53:51;;;;;;;12.45;2.20;;;;;;;;;;6193570;23;20020;-70
2022/11/02 04:56:17;;;;;;;13.55;1.80;;;;;;;;;;6217393;23;20021;-70
2022/11/02 04:58:43;;;;;;;9.43;1.58;;;;;;;;;;6218420;23;20027;-70
2022/11/02 05:01:14;;;;;;;12.38;2.35;;;;;;;;;;6218496;23;20087;-70
2022/11/02 05:03:40;;;;;;;18.88;2.05;;;;;;;;;;6218663;23;20438;-70
2022/11/02 05:06:06;;;;;;;12.90;1.92;;;;;;;;;;6194246;23;20008;-70
2022/11/02 05:08:33;;;;;;;9.73;1.63;;;;;;;;;;6218399;23;20024;-70
2022/11/02 05:10:59;;;;;;;12.50;1.95;;;;;;;;;;6193717;23;20099;-70
2022/11/02 05:13:26;;;;;;;12.13;2.03;;;;;;;;;;6218475;23;20016;-70
2022/11/02 05:15:55;;;;;;;12.90;1.92;;;;;;;;;;6218675;23;20089;-70
2022/11/02 05:18:21;;;;;;;11.15;2.08;;;;;;;;;;6218653;23;20024;-70
2022/11/02 05:20:51;;;;;;;10.32;2.08;;;;;;;;;;6218469;23;20051;-70
2022/11/02 05:23:17;;;;;;;11.02;1.40;;;;;;;;;;6218774;23;20012;-69
2022/11/02 05:25:51;;;;;;;11.00;2.15;;;;;;;;;;6218482;23;20008;-70
2022/11/02 05:28:17;;;;;;;10.38;2.10;;;;;;;;;;6218724;23;20016;-70
2022/11/02 05:30:43;;;;;;;16.23;2.05;;;;;;;;;;6220075;23;20094;-70
2022/11/02 05:33:09;;;;;;;13.52;1.98;;;;;;;;;;6220612;23;20109;-70
2022/11/02 05:35:35;;;;;;;15.10;2.92;;;;;;;;;;6220430;23;20016;-69
2022/11/02 05:38:01;;;;;;;16.27;2.83;;;;;;;;;;6220505;23;20048;-70
2022/11/02 05:40:27;;;;;;;13.00;2.08;;;;;;;;;;6220479;23;20012;-70
2022/11/02 05:43:00;;;;;;;9.23;1.95;;;;;;;;;;6220456;23;20335;-70
2022/11/02 05:45:26;;;;;;;12.82;2.00;;;;;;;;;;6220308;23;20066;-70
2022/11/02 05:47:52;;;;;;;17.35;2.33;;;;;;;;;;6220324;23;20027;-70
2022/11/02 05:50:19;;;;;;;17.27;2.95;;;;;;;;;;6220620;23;20092;-71
2022/11/02 05:52:45;;;;;;;17.23;2.30;;;;;;;;;;6219664;23;20049;-71
2022/11/02 05:55:11;;;;;;;22.08;4.78;;;;;;;;;;6219117;23;20473;-71
2022/11/02 05:57:37;;;;;;;10.90;2.00;;;;;;;;;;6217375;23;20346;-70
2022/11/02 06:00:04;;;;;;;16.65;2.05;;;;;;;;;;6218941;23;20245;-70
2022/11/02 06:02:30;;;;;;;18.88;2.00;;;;;;;;;;6220278;23;20399;-70
2022/11/02 06:04:57;;;;;;;14.57;2.50;;;;;;;;;;6219351;23;20016;-70
2022/11/02 06:07:23;;;;;;;18.23;2.85;;;;;;;;;;6220674;23;20026;-70
2022/11/02 06:09:49;;;;;;;15.27;2.00;;;;;;;;;;6220778;23;20071;-70
2022/11/02 06:12:15;;;;;;;27.60;2.45;;;;;;;;;;6220596;23;20023;-70
2022/11/02 06:14:41;;;;;;;14.88;2.38;;;;;;;;;;6220785;23;20066;-70
2022/11/02 06:17:07;;;;;;;16.17;3.30;;;;;;;;;;6220780;23;20096;-71
2022/11/02 06:19:33;;;;;;;21.52;2.50;;;;;;;;;;6221837;23;20443;-72
2022/11/02 06:21:59;;;;;;;12.02;1.92;;;;;;;;;;6221760;23;20083;-70
2022/11/02 06:24:25;;;;;;;15.77;2.70;;;;;;;;;;6221014;23;20023;-70
2022/11/02 06:26:51;;;;;;;18.52;2.47;;;;;;;;;;6247675;23;20015;-70
2022/11/02 06:29:17;;;;;;;12.50;2.20;;;;;;;;;;6220612;23;20008;-70
2022/11/02 06:31:43;;;;;;;10.70;2.08;;;;;;;;;;6218166;23;20018;-70
2022/11/02 06:34:09;;;;;;;7.30;1.92;;;;;;;;;;6217869;23;20018;-70
2022/11/02 06:36:35;;;;;;;13.35;1.75;;;;;;;;;;6217837;23;20058;-70
2022/11/02 06:39:01;;;;;;;12.65;2.10;;;;;;;;;;6193027;23;20058;-70
2022/11/02 06:41:28;;;;;;;11.80;1.92;;;;;;;;;;6217742;23;20016;-70
2022/11/02 06:43:54;;;;;;;14.73;2.22;;;;;;;;;;6218219;23;20347;-70
2022/11/02 06:46:20;;;;;;;16.48;2.20;;;;;;;;;;6218175;23;20051;-70
2022/11/02 06:48:47;;;;;;;11.88;1.92;;;;;;;;;;6192902;23;20522;-70
2022/11/02 06:51:13;;;;;;;10.18;1.88;;;;;;;;;;6218278;23;20016;-70
2022/11/02 06:53:39;;;;;;;12.05;2.15;;;;;;;;;;6217642;23;20066;-69
2022/11/02 06:56:05;;;;;;;11.95;1.98;;;;;;;;;;6244764;23;20104;-70
2022/11/02 06:58:32;;;;;;;11.18;2.88;;;;;;;;;;6217647;23;20020;-70
2022/11/02 07:00:59;;;;;;;20.63;2.30;;;;;;;;;;6218345;23;20070;-69
2022/11/02 07:03:26;;;;;;;14.07;2.45;;;;;;;;;;6216657;23;20051;-69
2022/11/02 07:05:52;;;;;;;11.75;2.22;;;;;;;;;;6217971;23;20015;-70
2022/11/02 07:08:19;;;;;;;13.43;2.20;;;;;;;;;;6216704;23;20384;-70
2022/11/02 07:10:45;;;;;;;14.20;2.33;;;;;;;;;;6216950;23;20050;-70
2022/11/02 07:13:11;;;;;;;12.82;2.15;;;;;;;;;;6192240;23;20020;-70
2022/11/02 07:15:38;;;;;;;16.05;2.30;;;;;;;;;;6216561;23;20016;-71
2022/11/02 07:18:08;;;;;;;11.85;2.08;;;;;;;;;;6216501;23;20031;-70
2022/11/02 07:20:34;;;;;;;12.70;1.90;;;;;;;;;;6216531;23;20012;-70
2022/11/02 07:23:01;;;;;;;10.40;1.90;;;;;;;;;;6216415;23;20066;-70
2022/11/02 07:25:31;;;;;;;12.10;1.95;;;;;;;;;;6216672;23;20019;-70
2022/11/02 07:27:58;;;;;;;8.85;2.20;;;;;;;;;;6216619;23;20434;-70
2022/11/02 07:30:25;;;;;;;13.68;3.20;;;;;;;;;;6194094;23;20090;-70
2022/11/02 07:32:51;;;;;;;24.50;4.82;;;;;;;;;;6218967;23;20022;-70
2022/11/02 07:35:17;;;;;;;8.38;2.22;;;;;;;;;;6219175;23;20042;-70
2022/11/02 07:37:43;;;;;;;16.42;3.63;;;;;;;;;;6245720;23;20023;-71
2022/11/02 07:40:10;;;;;;;16.52;2.85;;;;;;;;;;6219120;23;20431;-71
2022/11/02 07:42:43;;;;;;;17.75;2.58;;;;;;;;;;6218858;23;20346;-71
2022/11/02 07:45:09;;;;;;;13.95;3.40;;;;;;;;;;6218835;23;20016;-71
2022/11/02 07:47:41;;;;;;;11.95;2.17;;;;;;;;;;6219030;23;20012;-71
2022/11/02 07:50:07;;;;;;;16.77;2.70;;;;;;;;;;6219109;23;20015;-71
2022/11/02 07:52:33;;;;;;;12.23;2.42;;;;;;;;;;6218686;23;20247;-71
2022/11/02 07:54:59;;;;;;;13.45;2.47;;;;;;;;;;6219293;23;20019;-72
2022/11/02 07:57:25;;;;;;;14.98;2.40;;;;;;;;;;6218986;23;20074;-72
2022/11/02 07:59:52;;;;;;;14.80;2.67;;;;;;;;;;6219419;23;20016;-72
2022/11/02 08:02:18;;;;;;;9.50;2.35;;;;;;;;;;6218948;23;20024;-72
2022/11/02 08:04:44;;;;;;;11.10;2.08;;;;;;;;;;6219395;23;20087;-72
2022/11/02 08:07:10;;;;;;;10.18;2.13;;;;;;;;;;6218907;23;20020;-72
2022/11/02 08:09:36;;;;;;;19.92;3.45;;;;;;;;;;6193889;23;20027;-72
2022/11/02 08:12:02;;;;;;;20.90;2.42;;;;;;;;;;6218880;23;20392;-72
2022/11/02 08:14:28;;;;;;;12.60;3.03;;;;;;;;;;6217355;23;20044;-72
2022/11/02 08:16:54;;;;;;;14.55;2.65;;;;;;;;;;6245214;23;20012;-72
2022/11/02 08:19:20;;;;;;;10.57;2.50;;;;;;;;;;6218621;23;20012;-72
2022/11/02 08:21:46;;;;;;;8.88;2.28;;;;;;;;;;6218426;23;20016;-72
2022/11/02 08:24:12;;;;;;;8.63;2.00;;;;;;;;;;6218742;23;20024;-72
2022/11/02 08:26:38;;;;;;;15.95;2.55;;;;;;;;;;6218549;23;20019;-72
2022/11/02 08:29:04;;;;;;;14.55;2.22;;;;;;;;;;6218623;23;20020;-72
2022/11/02 08:31:30;;;;;;;6.47;1.85;;;;;;;;;;6218534;23;20442;-72
2022/11/02 08:33:57;;;;;;;15.30;2.22;;;;;;;;;;6218348;23;20095;-73
2022/11/02 08:36:23;;;;;;;11.32;1.92;;;;;;;;;;6218424;23;20016;-73
2022/11/02 08:38:49;;;;;;;11.45;1.90;;;;;;;;;;6218271;23;20053;-70
2022/11/02 08:41:15;;;;;;;12.50;2.05;;;;;;;;;;6218598;23;20503;-74
2022/11/02 08:43:41;;;;;;;18.20;2.28;;;;;;;;;;6218441;23;20012;-74
2022/11/02 08:46:07;;;;;;;16.48;2.50;;;;;;;;;;6218334;23;20095;-74
2022/11/02 08:48:34;;;;;;;12.23;2.28;;;;;;;;;;6218231;23;20016;-72
2022/11/02 08:51:00;;;;;;;22.05;3.60;;;;;;;;;;6218392;23;20024;-71
2022/11/02 08:53:26;;;;;;;15.20;2.10;;;;;;;;;;6244427;23;20047;-72
2022/11/02 08:55:52;;;;;;;18.52;3.25;;;;;;;;;;6218487;23;20063;-72
2022/11/02 08:58:18;;;;;;;16.75;3.22;;;;;;;;;;6218194;23;20020;-74
2022/11/02 09:00:44;;;;;;;14.88;2.13;;;;;;;;;;6218759;23;20016;-74
2022/11/02 09:03:12;;;;;;;16.85;2.78;;;;;;;;;;6217012;23;20088;-75
2022/11/02 09:05:39;;;;;;;16.58;2.78;;;;;;;;;;6219567;23;20009;-74
2022/11/02 09:08:06;;;;;;;13.32;2.38;;;;;;;;;;6219130;23;20070;-74
2022/11/02 09:10:33;;;;;;;21.77;2.85;;;;;;;;;;6218735;23;20012;-74
2022/11/02 09:13:00;;;;;;;15.52;2.42;;;;;;;;;;6219549;23;20016;-74
2022/11/02 09:15:26;;;;;;;15.50;2.97;;;;;;;;;;6219912;23;20139;-75
2022/11/02 09:17:53;;;;;;;16.80;2.58;;;;;;;;;;6220590;23;20018;-73
2022/11/02 09:20:19;;;;;;;29.77;3.53;;;;;;;;;;6220252;23;20035;-74
2022/11/02 09:22:45;;;;;;;12.45;2.42;;;;;;;;;;6219976;23;20020;-75
2022/11/02 09:25:12;;;;;;;19.58;2.53;;;;;;;;;;6220415;23;20019;-74
2022/11/02 09:27:38;;;;;;;13.93;2.95;;;;;;;;;;6220422;23;20017;-75
2022/11/02 09:30:05;;;;;;;13.50;2.55;;;;;;;;;;6220214;23;20016;-74
2022/11/02 09:32:32;;;;;;;14.75;2.60;;;;;;;;;;6220178;23;20442;-74
2022/11/02 09:34:59;;;;;;;15.30;2.33;;;;;;;;;;6220228;23;20012;-75
2022/11/02 09:37:26;;;;;;;19.63;3.15;;;;;;;;;;6220294;23;20016;-74
2022/11/02 09:39:52;;;;;;;21.70;3.17;;;;;;;;;;6194605;23;20441;-74
2022/11/02 09:42:25;;;;;;;13.50;2.30;;;;;;;;;;6219894;23;20066;-74
2022/11/02 09:45:27;;;;;;;18.85;2.90;;;;;;;;;;6219168;23;20008;-74
2022/11/02 09:48:19;;;;;;;17.02;2.08;;;;;;;;;;6100358;23;20022;-75
2022/11/02 09:50:48;;;;;;;9.23;1.92;;;;;;;;;;6189225;23;20020;-75
2022/11/02 09:53:17;;;;;;;13.13;2.15;;;;;;;;;;6219963;23;20024;-74
2022/11/02 09:55:48;;;;;;;16.38;3.10;;;;;;;;;;6220492;23;20016;-74
2022/11/02 09:58:17;;;;;;;14.90;2.10;;;;;;;;;;6219896;23;20020;-74
2022/11/02 10:00:47;;;;;;;20.13;2.38;;;;;;;;;;6220336;23;20016;-75
2022/11/02 10:03:16;;;;;;;14.90;2.53;;;;;;;;;;6220022;23;20020;-74
2022/11/02 10:05:47;;;;;;;20.23;3.03;;;;;;;;;;6219952;23;20334;-75
2022/11/02 10:08:24;;;;;;;12.73;2.20;;;;;;;;;;6219780;23;20020;-75
2022/11/02 10:11:01;;;;;;;20.65;4.10;;;;;;;;;;6220003;23;20023;-75
2022/11/02 10:13:45;;;;;;;15.77;2.72;;;;;;;;;;6219840;23;20051;-74
2022/11/02 10:16:17;;;;;;;16.60;2.55;;;;;;;;;;6218580;23;20020;-73
2022/11/02 10:18:48;;;;;;;13.75;2.53;;;;;;;;;;6219510;23;20095;-73
2022/11/02 10:21:18;;;;;;;13.73;2.60;;;;;;;;;;6219750;23;20020;-73
2022/11/02 10:23:51;;;;;;;18.88;3.08;;;;;;;;;;6219782;23;20016;-72
2022/11/02 10:26:19;;;;;;;21.95;2.63;;;;;;;;;;6220023;23;20012;-73
2022/11/02 10:28:47;;;;;;;17.60;2.72;;;;;;;;;;6219548;23;20489;-72
2022/11/02 10:31:34;;;;;;;19.92;2.75;;;;;;;;;;6219762;23;20534;-73
2022/11/02 10:34:15;;;;;;;16.25;2.28;;;;;;;;;;6219240;23;20020;-74
2022/11/02 10:36:41;;;;;;;13.00;2.08;;;;;;;;;;6194958;23;20316;-69
2022/11/02 10:39:19;;;;;;;13.88;2.58;;;;;;;;;;6219380;23;20354;-72
2022/11/02 10:42:04;;;;;;;12.82;2.22;;;;;;;;;;6219675;23;20012;-73
2022/11/02 10:44:39;;;;;;;14.55;2.20;;;;;;;;;;6219629;23;20342;-73
2022/11/02 10:47:05;;;;;;;9.57;2.20;;;;;;;;;;6219390;23;20044;-73
2022/11/02 10:49:43;;;;;;;14.43;2.42;;;;;;;;;;6219624;23;20023;-73
2022/11/02 10:52:12;;;;;;;12.32;2.33;;;;;;;;;;6219519;23;20012;-72
2022/11/02 10:54:39;;;;;;;13.80;2.30;;;;;;;;;;6219469;23;20047;-72
2022/11/02 10:57:11;;;;;;;15.68;2.10;;;;;;;;;;6218981;23;20027;-72
2022/11/02 10:59:37;;;;;;;;;;;13.90;99.90;;;;;;6219745;23;20032;-73
2022/11/02 11:02:11;;;;;;;11.60;2.00;;;;;;;;;;6219035;23;19994;-73
2022/11/02 11:04:37;;;;;;;16.08;2.13;;;;;;;;;;6219345;23;20022;-74
2022/11/02 11:07:05;;;;;;;19.83;2.67;;;;;;;;;;6219036;23;20012;-74
2022/11/02 11:09:49;;;;;;;15.10;3.20;;;;;;;;;;6219199;23;20023;-73
2022/11/02 11:12:19;;;;;;;9.73;2.50;;;;;;;;;;6219770;23;20088;-73
2022/11/02 11:14:50;;;;;;;14.60;2.40;;;;;;;;;;6219787;23;20030;-73
2022/11/02 11:17:18;;;;;;;13.65;2.50;;;;;;;;;;6219810;23;20023;-73
2022/11/02 11:19:48;;;;;;;17.02;2.20;;;;;;;;;;6219881;23;20052;-73
2022/11/02 11:22:40;;;;;;;9.60;2.35;;;;;;;;;;6220277;23;20350;-73
2022/11/02 11:25:10;;;;;;;12.13;2.42;;;;;;;;;;6215898;23;20016;-73
2022/11/02 11:27:46;;;;;;;13.80;2.10;;;;;;;;;;6221353;23;20311;-72
2022/11/02 11:30:32;;;;;;;13.32;2.40;;;;;;;;;;6220867;23;20024;-73
2022/11/02 11:32:59;;;;;;;11.02;2.00;;;;;;;;;;6219778;23;20019;-73
2022/11/02 11:35:29;;;;;;;15.65;2.50;;;;;;;;;;6219829;23;20052;-73
2022/11/02 11:38:03;;;;;;;18.85;2.10;;;;;;;;;;6217096;23;20027;-73
2022/11/02 11:40:32;;;;;;;9.85;1.77;;;;;;;;;;6247409;23;20342;-72
2022/11/02 11:43:01;;;;;;;12.88;2.20;;;;;;;;;;6220768;23;20311;-74
2022/11/02 11:45:29;;;;;;;13.63;2.47;;;;;;;;;;6219945;23;20016;-74
2022/11/02 11:48:03;;;;;;;11.55;1.98;;;;;;;;;;6220113;23;20400;-74
2022/11/02 11:50:29;;;;;;;16.75;2.30;;;;;;;;;;6194776;23;20016;-73
2022/11/02 11:53:13;;;;;;;15.70;2.10;;;14.60;99.90;;;;;;6219711;23;20026;-74
2022/11/02 11:56:06;;;;;;;14.70;2.10;;;;;;;;;;6219629;23;20397;-74
2022/11/02 11:58:33;;;;;;;14.57;3.15;;;;;;;;;;6212342;23;20051;-74
2022/11/02 12:01:02;;;;;;;17.67;2.53;;;;;;;;;;6217802;23;20030;-74
2022/11/02 12:03:28;;;;;;;19.73;2.80;;;;;;;;;;6219379;23;20015;-74
2022/11/02 12:05:54;;;;;;;19.40;2.40;;;;;;;;;;6217896;23;20097;-75
2022/11/02 12:08:59;;;;;;;16.38;2.40;;;;;;;;;;6217695;23;20023;-74
2022/11/02 12:11:26;;;;;;;17.70;2.50;;;;;;;;;;6099447;23;20548;-74
2022/11/02 12:14:02;;;;;;;14.35;1.98;;;;;;;;;;6099305;23;20022;-74
2022/11/02 12:16:53;;;;;;;20.17;2.85;;;14.50;99.90;;;;;;6140858;23;20035;-74
2022/11/02 12:19:19;;;;;;;18.95;2.95;;;;;;;;;;6219252;23;20050;-74
2022/11/02 12:21:48;;;;;;;15.82;2.35;;;;;;;;;;6219323;23;20016;-74
2022/11/02 12:24:20;;;;;;;12.90;2.05;;;;;;;;;;6219368;23;20019;-74
2022/11/02 12:26:59;;;;;;;15.68;2.05;;;;;;;;;;6219130;23;20012;-74
2022/11/02 12:29:44;;;;;;;23.08;2.38;;;;;;;;;;6219251;23;20087;-74
2022/11/02 12:32:25;;;;;;;13.20;2.45;;;;;;;;;;6219131;23;20015;-74
2022/11/02 12:34:51;;;;;;;11.15;1.48;;;;;;;;;;6219304;23;20438;-74
2022/11/02 12:37:17;;;;;;;21.50;1.98;;;;;;;;;;6219157;23;20020;-74
2022/11/02 12:39:52;;;;;;;14.82;2.10;;;;;;;;;;6218983;23;20078;-74
2022/11/02 12:42:57;;;;;;;15.88;2.15;;;14.80;99.90;;;;;;6219024;23;20044;-75
2022/11/02 12:45:32;;;;;;;19.63;2.20;;;;;;;;;;6218923;23;20377;-75
2022/11/02 12:48:03;;;;;;;15.40;2.00;;;;;;;;;;6219268;23;20489;-75
2022/11/02 12:50:29;;;;;;;19.48;3.38;;;;;;;;;;6217489;23;20023;-75
2022/11/02 12:53:05;;;;;;;16.40;2.78;;;;;;;;;;6219142;23;20024;-75
2022/11/02 12:55:35;;;;;;;19.73;2.00;;;15.50;99.90;;;;;;6218858;23;20020;-75
2022/11/02 12:58:03;;;;;;;17.92;2.22;;;;;;;;;;6218860;23;20020;-75
2022/11/02 13:00:30;;;;;;;12.77;2.10;;;;;;;;;;6219048;23;20027;-74
2022/11/02 13:03:27;;;;;;;16.15;2.75;;;15.80;99.90;;;;;;6218811;23;20027;-74
2022/11/02 13:06:01;;;;;;;17.17;1.88;;;15.80;99.90;;;;;;6218900;23;20446;-74
2022/11/02 13:08:35;;;;;;;18.77;2.58;;;;;;;;;;6218965;23;20096;-74
2022/11/02 13:11:05;;;;;;;13.75;1.95;;;;;;;;;;6218987;23;20406;-74
2022/11/02 13:13:40;;;;;;;15.50;2.55;;;;;;;;;;6218850;23;20020;-74
2022/11/02 13:16:07;;;;;;;13.02;2.55;;;;;;;;;;6218902;23;20171;-74
2022/11/02 13:18:53;;;;;;;10.30;1.50;;;;;;;;;;6218886;23;20024;-74
2022/11/02 13:21:27;;;;;;;24.50;2.38;;;;;;;;;;6218772;23;20016;-74
2022/11/02 13:23:55;;;;;;;18.15;1.67;;;;;;;;;;6218569;23;20430;-75
2022/11/02 13:26:29;;;;;;;17.83;2.40;;;;;;;;;;6219008;23;20469;-75
2022/11/02 13:29:29;;;;;;;15.05;2.70;;;15.70;99.90;;;;;;6218886;23;20039;-75
2022/11/02 13:32:06;;;;;;;15.52;2.38;;;;;;;;;;6218851;23;20020;-75
2022/11/02 13:34:41;;;;;;;17.23;2.30;;;;;;;;;;6218997;23;20016;-75
2022/11/02 13:37:10;;;;;;;12.60;2.20;;;;;;;;;;6218670;23;20019;-75
2022/11/02 13:39:38;;;;;;;16.65;2.67;;;;;;;;;;6218687;23;20080;-75
2022/11/02 13:42:07;;;;;;;15.48;2.20;;;;;;;;;;6218920;23;20020;-75
2022/11/02 13:44:40;;;;;;;24.23;2.38;;;;;;;;;;6219044;23;20096;-76
2022/11/02 13:47:25;;;;;;;12.88;2.28;;;;;;;;;;6218314;23;20012;-76
2022/11/02 13:49:52;;;;;;;14.57;2.55;;;;;;;;;;6218334;23;20457;-74
2022/11/02 13:52:30;;;;;;;19.10;2.17;;;;;;;;;;6196006;23;20043;-74
2022/11/02 13:54:59;;;;;;;24.83;2.92;;;;;;;;;;6219836;23;20011;-74
2022/11/02 13:57:32;;;;;;;19.10;2.40;;;;;;;;;;6220415;23;20027;-74
2022/11/02 13:59:59;;;;;;;18.00;2.72;;;;;;;;;;6220712;23;20016;-74
2022/11/02 14:02:27;;;;;;;17.70;2.08;;;;;;;;;;6220632;23;20098;-74
2022/11/02 14:04:53;;;;;;;17.17;2.17;;;;;;;;;;6220608;23;20016;-74
2022/11/02 14:07:23;;;;;;;13.90;2.13;;;;;;;;;;6220576;23;20046;-74
2022/11/02 14:09:49;;;;;;;15.05;2.58;;;;;;;;;;6220483;23;20047;-74
2022/11/02 14:12:21;;;;;;;17.92;2.38;;;;;;;;;;6220590;23;20012;-74
2022/11/02 14:15:06;;;;;;;15.88;2.25;;;;;;;;;;6220593;23;20119;-75
2022/11/02 14:17:52;;;;;;;20.73;2.17;;;;;;;;;;6220424;23;20085;-76
2022/11/02 14:20:43;;;;;;;20.40;3.40;;;15.70;99.90;;;;;;6220357;23;20095;-75
2022/11/02 14:23:09;;;;;;;22.95;2.97;;;;;;;;;;6206653;23;20012;-75
2022/11/02 14:25:44;;;;;;;12.32;2.45;;;;;;;;;;6220427;23;20023;-75
2022/11/02 14:28:27;;;;;;;20.05;2.33;;;;;;;;;;6220524;23;20093;-75
2022/11/02 14:31:02;;;;;;;15.70;2.15;;;;;;;;;;6220457;23;20450;-75
2022/11/02 14:33:40;;;;;;;15.25;2.30;;;;;;;;;;6220206;23;20378;-76
2022/11/02 14:36:18;;;;;;;14.88;2.00;;;;;;;;;;6219730;23;20095;-74
2022/11/02 14:38:47;;;;;;;9.35;1.85;;;;;;;;;;6219649;23;20059;-74
2022/11/02 14:41:16;;;;;;;24.02;2.92;;;;;;;;;;6219750;23;20515;-74
2022/11/02 14:43:54;;;;;;;9.07;1.80;;;;;;;;;;6219652;23;20008;-74
2022/11/02 14:46:43;;;;;;;16.52;2.42;;;;;;;;;;6219688;23;20008;-74
2022/11/02 14:49:17;;;;;;;14.15;2.60;;;;;;;;;;6219518;23;20020;-75
2022/11/02 14:51:43;;;;;;;13.77;1.58;;;;;;;;;;6219597;23;20047;-74
2022/11/02 14:54:17;;;;;;;13.73;2.25;;;;;;;;;;6219456;23;20083;-74
2022/11/02 14:56:59;;;;;;;12.27;1.92;;;;;;;;;;6219086;23;20024;-74
2022/11/02 14:59:37;;;;;;;15.27;2.70;;;;;;;;;;6219454;23;20400;-75
2022/11/02 15:02:14;;;;;;;18.30;2.03;;;;;;;;;;6219264;23;20447;-75